Terminal Aerodrome Forecast
Issued by NWS

Home | Current Version | Previous Version | Text Only | Print | Product List | Glossary On
Versions: 1 2 3 4 5 6 7 8 9 10 11 12 13 14
000
FTUS44 KCRP 041120
TAFLRD
TAF
KLRD 041120Z 0412/0512 15009KT P6SM SCT015 BKN020
      TEMPO 0412/0413 BKN015
     FM041600 16015KT P6SM BKN040
     FM041900 13015G20KT P6SM SCT060
     FM050400 14012KT P6SM FEW030
     FM051000 14008KT P6SM BKN020=

USA.gov is the U.S. government's official web portal to all federal, state and local government web resources and services.